• Join FlightAware (Why Join?)
  • Login
  • US Flag 
12:06AM EDT


 

Airport Tracker/Info


-or-


 

Live Flight TrackerFlight Track Log ✈ N885FT ✈ 04-May-2014 ✈ KPBI - KMLB

Flight Track Log - Related Links

Times and Time Zones

All times are in EDT time to prevent confusion due to time zone crossing. See the N885FT flight status page for this flight to view local times or setup timezone preferences in your user account.

Time Position Orientation Groundspeed Altitude Reporting Facility
EDT Latitude Longitude Course Direction KTS MPH feet Rate Location/Type
09:43PM 26.4947 -80.2294 338° Northwest 138 159 5,600  Level Miami Center
09:44PM 26.5031 -80.2275 12° North 141 162 5,500 -120 Descending Miami Center
09:45PM 26.5431 -80.2147 16° North 140 161 5,500 -120 Level Miami Center
09:46PM 26.5789 -80.2017 18° North 143 165 5,300 -300 Descending Miami Center
09:47PM 26.6186 -80.1958 North 145 167 5,000 -180 Descending Miami Center
09:48PM 26.6586 -80.1925 North 133 153 5,000  Level Miami Center
09:49PM 26.9751 -80.1947 338° Northwest  Level FlightAware Approximate
09:49PM 26.6942 -80.1864 North 135 155 5,000  Level Miami Center
09:50PM 26.7319 -80.1828 North 135 155 5,000  Level Miami Center
09:51PM 26.7694 -80.1769 North 136 157 5,000  Level Miami Center
09:52PM 26.8072 -80.1733 North 136 157 5,000  Level Miami Center
09:53PM 26.8450 -80.1675 North 132 152 5,000  Level Miami Center
09:54PM 26.8803 -80.1731 352° North 132 152 5,000  Level Miami Center
09:54PM 26.9072 -80.1856 338° Northwest 142 163 5,000  Level Miami Center
09:55PM 26.9197 -80.1881 350° North 144 166 5,000  Level Miami Center
09:55PM 26.9444 -80.1981 340° North 142 163 5,000  Level Miami Center
09:56PM 26.9589 -80.2056 335° Northwest 142 163 5,000  Level Miami Center
09:56PM 26.9858 -80.2133 346° North 142 163 5,000  Level Miami Center
09:57PM 26.9942 -80.2206 322° Northwest 142 163 5,000  Level Miami Center
09:57PM 27.0147 -80.2258 347° North 142 163 5,000  Level Miami Center
09:58PM 27.0314 -80.2356 333° Northwest 140 161 5,000  Level Miami Center
09:58PM 27.0519 -80.2408 347° North 142 163 5,000  Level Miami Center
09:59PM 27.0664 -80.2506 329° Northwest 141 162 5,000  Level Miami Center
09:59PM 27.0936 -80.2561 350° North 142 163 5,000  Level Miami Center
10:00PM 27.1100 -80.2636 338° Northwest 140 161 5,000  Level Miami Center
10:00PM 27.1308 -80.2711 342° North 142 163 5,000  Level Miami Center
10:01PM 27.1514 -80.2811 337° Northwest 143 165 5,000  Level Miami Center
10:01PM 27.1700 -80.2839 352° North 148 170 5,000  Level Miami Center
10:02PM 27.1864 -80.2961 326° Northwest 144 166 5,000  Level Miami Center
10:02PM 27.2033 -80.2967 358° North 148 170 5,000  Level Miami Center
10:03PM 27.2258 -80.3092 334° Northwest 145 167 5,000  Level Miami Center
10:03PM 27.2447 -80.3119 353° North 148 170 5,000  Level Miami Center
10:04PM 27.2631 -80.3242 329° Northwest 144 166 5,000  Level Miami Center
10:04PM 27.2839 -80.3317 342° North 148 170 5,000  Level Miami Center
10:05PM 27.3167 -80.3586 324° Northwest 148 170 5,000  Level Miami Center
10:06PM 27.3453 -80.3828 323° Northwest 148 170 5,000  Level Miami Center
10:07PM 27.3778 -80.4119 321° Northwest 148 170 5,000  Level Miami Center
10:08PM 27.4147 -80.4411 325° Northwest 148 170 5,000  Level Miami Center
10:09PM 27.4475 -80.4678 324° Northwest 148 170 5,000  Level Miami Center
10:10PM 27.4803 -80.4922 327° Northwest 148 170 5,000  Level Miami Center
10:11PM 27.5089 -80.5189 320° Northwest 148 170 5,000  Level Miami Center
10:12PM 27.5417 -80.5433 327° Northwest 148 170 5,000  Level Miami Center
10:13PM 27.5783 -80.5725 325° Northwest 148 170 5,000 -300 Level Miami Center
10:14PM 27.6133 -80.5994 326° Northwest 148 170 4,500 -540 Descending Miami Center
10:15PM 27.6419 -80.6217 325° Northwest 148 170 4,000 -540 Descending Miami Center
10:16PM 27.6744 -80.6483 324° Northwest 148 170 3,500 -480 Descending Miami Center
10:17PM 27.7094 -80.6731 328° Northwest 148 170 3,100 -180 Descending Miami Center
10:20PM 27.7833 -80.7000 342° North 132 152 3,000 -60 Descending Orlando TRACON
10:21PM 27.8333 -80.7000 360° North 131 151 3,000  Level Orlando TRACON
10:22PM 27.8667 -80.7167 336° Northwest 133 153 3,000  Level Orlando TRACON
10:23PM 27.9000 -80.7167 360° North 133 153 3,000  Level Orlando TRACON
10:24PM 27.9333 -80.7333 336° Northwest 133 153 3,000  Level Orlando TRACON
10:25PM 27.9667 -80.7333 360° North 134 154 3,000  Level Orlando TRACON
10:26PM 28.0000 -80.7500 336° Northwest 133 153 3,000  Level Orlando TRACON
10:27PM 28.0333 -80.7500 360° North 134 154 3,000 -480 Level Orlando TRACON
10:28PM 28.0667 -80.7667 336° Northwest 107 123 2,100 -1,080 Descending Orlando TRACON
10:29PM 28.1000 -80.7333 41° Northeast 116 133 900 -780 Descending Orlando TRACON
10:30PM 28.1000 -80.7000 90° East 108 124 600 -300 Descending Orlando TRACON
10:31PM 28.1000 -80.6833 90° East 92 106 400 -240 Descending Orlando TRACON
10:33PM 28.1028 -80.6453 North  Level Estimated